Private Wetterstation Wechselburg
Wetterdaten: Mittwoch, 29.09.2021
Datum Zeit Temp. +2m Bodentemp. Temp.+5cm Temp. Wind Windchill X Diff Temp. Feuchte +2m Feuchte +5cm Luftdruck Regen Wind Richtung Richtung Sonnenschein Taupunkt Windchill Windben
29.09.2021 00:00 9,7 C 17,5 C 10,5 C 9,7 C 9,7 C 0,0 C 88 % 95 % 1018,3 hPa 0,0 l/m 0,0 km/h (0 Bft) N-NO 22 0 min 7,8 C 9,7 C 0,0 km/h (0 Bft)
29.09.2021 00:05 9,6 C 17,4 C 10,4 C 9,8 C 9,8 C 0,2 C 88 % 95 % 1018,3 hPa 0,0 l/m 0,0 km/h (0 Bft) N-NO 22 0 min 7,7 C 9,8 C 0,0 km/h (0 Bft)
29.09.2021 00:10 9,6 C 17,4 C 10,4 C 9,8 C 9,8 C 0,2 C 88 % 95 % 1018,3 hPa 0,0 l/m 0,0 km/h (0 Bft) N-NO 22 0 min 7,7 C 9,8 C 0,0 km/h (0 Bft)
29.09.2021 00:15 9,6 C 17,4 C 10,3 C 9,7 C 9,7 C 0,1 C 88 % 95 % 1018,4 hPa 0,0 l/m 0,0 km/h (0 Bft) N-NO 22 0 min 7,7 C 9,7 C 0,0 km/h (0 Bft)
29.09.2021 00:20 9,6 C 17,4 C 10,3 C 9,7 C 9,7 C 0,1 C 88 % 95 % 1018,4 hPa 0,0 l/m 0,0 km/h (0 Bft) N-NO 22 0 min 7,7 C 9,7 C 0,0 km/h (0 Bft)
29.09.2021 00:25 9,5 C 17,4 C 10,3 C 9,7 C 9,7 C 0,2 C 88 % 95 % 1018,4 hPa 0,0 l/m 0,0 km/h (0 Bft) N-NO 22 0 min 7,6 C 9,7 C 0,0 km/h (0 Bft)
29.09.2021 00:30 9,5 C 17,4 C 10,2 C 9,6 C 9,6 C 0,1 C 88 % 95 % 1018,4 hPa 0,0 l/m 0,0 km/h (0 Bft) N-NO 22 0 min 7,6 C 9,6 C 0,0 km/h (0 Bft)
29.09.2021 00:35 9,4 C 17,4 C 10,1 C 9,5 C 9,5 C 0,1 C 88 % 95 % 1018,1 hPa 0,0 l/m 0,0 km/h (0 Bft) N-NO 22 0 min 7,5 C 9,5 C 0,0 km/h (0 Bft)
29.09.2021 00:40 9,3 C 17,4 C 10,1 C 9,5 C 9,5 C 0,2 C 88 % 95 % 1018,1 hPa 0,0 l/m 0,0 km/h (0 Bft) N-NO 22 0 min 7,4 C 9,5 C 0,0 km/h (0 Bft)
29.09.2021 00:45 9,2 C 17,4 C 10,2 C 9,7 C 9,7 C 0,5 C 88 % 95 % 1018,1 hPa 0,0 l/m 0,0 km/h (0 Bft) N-NO 22 0 min 7,3 C 9,7 C 0,0 km/h (0 Bft)
29.09.2021 00:50 9,2 C 17,4 C 10,3 C 9,8 C 9,8 C 0,6 C 88 % 95 % 1018,1 hPa 0,0 l/m 0,0 km/h (0 Bft) N-NO 22 0 min 7,3 C 9,8 C 0,0 km/h (0 Bft)
29.09.2021 00:55 9,2 C 17,4 C 10,3 C 10,0 C 10,0 C 0,8 C 88 % 95 % 1018,1 hPa 0,0 l/m 0,0 km/h (0 Bft) N-NO 22 0 min 7,3 C 10,0 C 0,0 km/h (0 Bft)
29.09.2021 01:00 9,3 C 17,4 C 10,4 C 10,1 C 10,1 C 0,8 C 88 % 95 % 1018,1 hPa 0,0 l/m 0,0 km/h (0 Bft) N-NO 22 0 min 7,4 C 10,1 C 0,0 km/h (0 Bft)
29.09.2021 01:05 9,3 C 17,4 C 10,5 C 10,3 C 10,3 C 1,0 C 88 % 95 % 1018,1 hPa 0,0 l/m 0,0 km/h (0 Bft) N-NO 22 0 min 7,4 C 10,3 C 0,0 km/h (0 Bft)
29.09.2021 01:10 9,2 C 17,4 C 10,5 C 10,3 C 10,3 C 1,1 C 88 % 95 % 1018,1 hPa 0,0 l/m 0,0 km/h (0 Bft) N-NO 22 0 min 7,3 C 10,3 C 0,0 km/h (0 Bft)
29.09.2021 01:15 9,2 C 17,4 C 10,6 C 10,5 C 10,5 C 1,3 C 88 % 95 % 1017,8 hPa 0,0 l/m 0,0 km/h (0 Bft) N-NO 22 0 min 7,3 C 10,5 C 0,0 km/h (0 Bft)
29.09.2021 01:20 9,3 C 17,4 C 10,7 C 10,5 C 10,5 C 1,2 C 87 % 95 % 1017,8 hPa 0,0 l/m 0,0 km/h (0 Bft) N-NO 22 0 min 7,2 C 10,5 C 0,0 km/h (0 Bft)
29.09.2021 01:25 9,3 C 17,4 C 10,7 C 10,6 C 10,6 C 1,3 C 87 % 95 % 1017,8 hPa 0,0 l/m 0,0 km/h (0 Bft) N-NO 22 0 min 7,2 C 10,6 C 0,0 km/h (0 Bft)
29.09.2021 01:30 9,2 C 17,4 C 10,7 C 10,7 C 10,7 C 1,5 C 87 % 95 % 1017,8 hPa 0,0 l/m 0,0 km/h (0 Bft) N-NO 22 0 min 7,2 C 10,7 C 0,0 km/h (0 Bft)
29.09.2021 01:35 9,2 C 17,4 C 10,8 C 10,7 C 10,7 C 1,5 C 87 % 95 % 1017,8 hPa 0,0 l/m 0,0 km/h (0 Bft) N-NO 22 0 min 7,2 C 10,7 C 0,0 km/h (0 Bft)
29.09.2021 01:40 9,2 C 17,4 C 10,9 C 10,9 C 10,9 C 1,7 C 87 % 95 % 1017,8 hPa 0,0 l/m 0,0 km/h (0 Bft) N-NO 22 0 min 7,2 C 10,9 C 0,0 km/h (0 Bft)
29.09.2021 01:45 9,3 C 17,4 C 10,9 C 10,9 C 10,9 C 1,6 C 87 % 95 % 1017,8 hPa 0,0 l/m 0,0 km/h (0 Bft) N-NO 22 0 min 7,2 C 10,9 C 0,0 km/h (0 Bft)
29.09.2021 01:50 9,3 C 17,3 C 10,9 C 10,9 C 10,9 C 1,6 C 87 % 95 % 1017,8 hPa 0,0 l/m 0,0 km/h (0 Bft) N-NO 22 0 min 7,2 C 10,9 C 0,0 km/h (0 Bft)
29.09.2021 01:55 9,5 C 17,3 C 11,0 C 10,9 C 10,9 C 1,4 C 88 % 95 % 1017,8 hPa 0,0 l/m 0,0 km/h (0 Bft) N-NO 22 0 min 7,6 C 10,9 C 0,0 km/h (0 Bft)
29.09.2021 02:00 9,5 C 17,4 C 11,0 C 10,9 C 10,9 C 1,4 C 88 % 95 % 1017,8 hPa 0,0 l/m 0,0 km/h (0 Bft) N-NO 22 0 min 7,6 C 10,9 C 0,0 km/h (0 Bft)
29.09.2021 02:05 9,5 C 17,3 C 11,1 C 11,0 C 11,0 C 1,5 C 88 % 95 % 1017,8 hPa 0,0 l/m 0,0 km/h (0 Bft) N-NO 22 0 min 7,6 C 11,0 C 0,0 km/h (0 Bft)
29.09.2021 02:10 9,4 C 17,3 C 11,1 C 11,1 C 11,1 C 1,7 C 88 % 95 % 1017,8 hPa 0,0 l/m 0,0 km/h (0 Bft) N-NO 22 0 min 7,5 C 11,1 C 0,0 km/h (0 Bft)
29.09.2021 02:15 9,6 C 17,3 C 11,2 C 11,2 C 11,2 C 1,6 C 88 % 95 % 1017,6 hPa 0,0 l/m 0,0 km/h (0 Bft) N-NO 22 0 min 7,7 C 11,2 C 0,0 km/h (0 Bft)
29.09.2021 02:20 9,7 C 17,4 C 11,2 C 11,3 C 11,3 C 1,6 C 88 % 95 % 1017,6 hPa 0,0 l/m 0,0 km/h (0 Bft) N-NO 22 0 min 7,8 C 11,3 C 0,0 km/h (0 Bft)
29.09.2021 02:25 9,8 C 17,4 C 11,3 C 11,3 C 11,3 C 1,5 C 88 % 95 % 1017,6 hPa 0,0 l/m 0,0 km/h (0 Bft) O-NO 67 0 min 7,9 C 11,3 C 0,0 km/h (0 Bft)
29.09.2021 02:30 9,9 C 17,4 C 11,4 C 11,5 C 11,5 C 1,6 C 88 % 95 % 1017,6 hPa 0,0 l/m 0,0 km/h (0 Bft) O-NO 67 0 min 8,0 C 11,5 C 0,0 km/h (0 Bft)
29.09.2021 02:35 9,9 C 17,4 C 11,5 C 11,5 C 11,5 C 1,6 C 88 % 95 % 1017,3 hPa 0,0 l/m 0,0 km/h (0 Bft) O-NO 67 0 min 8,0 C 11,5 C 0,0 km/h (0 Bft)
29.09.2021 02:40 10,0 C 17,4 C 11,5 C 11,6 C 11,6 C 1,6 C 88 % 95 % 1017,3 hPa 0,0 l/m 0,0 km/h (0 Bft) O-NO 67 0 min 8,1 C 11,6 C 0,0 km/h (0 Bft)
29.09.2021 02:45 10,0 C 17,4 C 11,5 C 11,7 C 11,7 C 1,7 C 88 % 95 % 1017,3 hPa 0,0 l/m 0,0 km/h (0 Bft) O-NO 67 0 min 8,1 C 11,7 C 0,0 km/h (0 Bft)
29.09.2021 02:50 10,1 C 17,3 C 11,6 C 11,7 C 11,7 C 1,6 C 88 % 95 % 1017,3 hPa 0,0 l/m 0,0 km/h (0 Bft) O-NO 67 0 min 8,2 C 11,7 C 0,0 km/h (0 Bft)
29.09.2021 02:55 10,1 C 17,3 C 11,6 C 11,7 C 11,7 C 1,6 C 88 % 95 % 1017,2 hPa 0,0 l/m 0,0 km/h (0 Bft) O-NO 67 0 min 8,2 C 11,7 C 0,0 km/h (0 Bft)
29.09.2021 03:00 10,1 C 17,3 C 11,7 C 11,8 C 11,8 C 1,7 C 88 % 95 % 1017,2 hPa 0,0 l/m 0,0 km/h (0 Bft) O-NO 67 0 min 8,2 C 11,8 C 0,0 km/h (0 Bft)
29.09.2021 03:05 10,3 C 17,3 C 11,8 C 11,9 C 11,9 C 1,6 C 88 % 95 % 1017,2 hPa 0,0 l/m 0,0 km/h (0 Bft) O-NO 67 0 min 8,4 C 11,9 C 0,0 km/h (0 Bft)
29.09.2021 03:10 10,3 C 17,3 C 11,8 C 11,9 C 11,9 C 1,6 C 88 % 95 % 1017,2 hPa 0,0 l/m 0,0 km/h (0 Bft) O-NO 67 0 min 8,4 C 11,9 C 0,0 km/h (0 Bft)
29.09.2021 03:15 10,3 C 17,3 C 11,9 C 12,0 C 12,0 C 1,7 C 88 % 95 % 1017,4 hPa 0,0 l/m 0,0 km/h (0 Bft) O-NO 67 0 min 8,4 C 12,0 C 0,0 km/h (0 Bft)
29.09.2021 03:20 10,4 C 17,3 C 11,9 C 12,0 C 12,0 C 1,6 C 88 % 95 % 1017,4 hPa 0,0 l/m 0,0 km/h (0 Bft) O-NO 67 0 min 8,5 C 12,0 C 0,0 km/h (0 Bft)
29.09.2021 03:25 10,5 C 17,3 C 11,9 C 12,0 C 12,0 C 1,5 C 88 % 95 % 1017,4 hPa 0,0 l/m 0,5 km/h (0 Bft) O-NO 67 0 min 8,6 C 12,0 C 2,1 km/h (1 Bft)
29.09.2021 03:30 10,5 C 17,3 C 11,9 C 11,9 C 11,9 C 1,4 C 88 % 95 % 1017,4 hPa 0,0 l/m 0,6 km/h (0 Bft) O-NO 67 0 min 8,6 C 11,9 C 0,0 km/h (0 Bft)
29.09.2021 03:35 10,4 C 17,3 C 11,9 C 11,9 C 11,9 C 1,5 C 88 % 95 % 1017,1 hPa 0,0 l/m 0,2 km/h (0 Bft) O-NO 67 0 min 8,5 C 11,9 C 0,0 km/h (0 Bft)
29.09.2021 03:40 10,5 C 17,3 C 11,9 C 11,9 C 11,9 C 1,4 C 88 % 95 % 1017,1 hPa 0,0 l/m 0,0 km/h (0 Bft) O-NO 67 0 min 8,6 C 11,9 C 0,0 km/h (0 Bft)
29.09.2021 03:45 10,4 C 17,3 C 11,9 C 12,0 C 12,0 C 1,6 C 88 % 95 % 1017,1 hPa 0,0 l/m 0,0 km/h (0 Bft) O-NO 67 0 min 8,5 C 12,0 C 0,0 km/h (0 Bft)
29.09.2021 03:50 10,4 C 17,3 C 12,0 C 12,0 C 12,0 C 1,6 C 88 % 95 % 1017,1 hPa 0,0 l/m 0,0 km/h (0 Bft) O-NO 67 0 min 8,5 C 12,0 C 0,0 km/h (0 Bft)
29.09.2021 03:55 10,5 C 17,3 C 12,0 C 12,1 C 12,1 C 1,6 C 88 % 95 % 1016,4 hPa 0,0 l/m 0,0 km/h (0 Bft) O-NO 67 0 min 8,6 C 12,1 C 0,0 km/h (0 Bft)
29.09.2021 04:00 10,5 C 17,3 C 12,1 C 12,1 C 12,1 C 1,6 C 88 % 95 % 1016,4 hPa 0,0 l/m 0,0 km/h (0 Bft) O-NO 67 0 min 8,6 C 12,1 C 0,0 km/h (0 Bft)
29.09.2021 04:05 10,6 C 17,3 C 12,1 C 12,1 C 12,1 C 1,5 C 88 % 95 % 1016,4 hPa 0,0 l/m 0,0 km/h (0 Bft) O-NO 67 0 min 8,7 C 12,1 C 0,0 km/h (0 Bft)
29.09.2021 04:10 10,6 C 17,3 C 12,1 C 12,2 C 12,2 C 1,6 C 88 % 95 % 1016,4 hPa 0,0 l/m 0,0 km/h (0 Bft) O-NO 67 0 min 8,7 C 12,2 C 0,0 km/h (0 Bft)
29.09.2021 04:15 10,7 C 17,3 C 12,2 C 12,3 C 12,3 C 1,6 C 88 % 95 % 1016,5 hPa 0,0 l/m 0,0 km/h (0 Bft) O-NO 67 0 min 8,8 C 12,3 C 0,0 km/h (0 Bft)
29.09.2021 04:20 10,7 C 17,3 C 12,2 C 12,3 C 12,3 C 1,6 C 88 % 95 % 1016,5 hPa 0,0 l/m 0,0 km/h (0 Bft) O-NO 67 0 min 8,8 C 12,3 C 0,0 km/h (0 Bft)
29.09.2021 04:25 10,8 C 17,3 C 12,3 C 12,4 C 12,4 C 1,6 C 88 % 95 % 1016,5 hPa 0,0 l/m 0,0 km/h (0 Bft) O-NO 67 0 min 8,9 C 12,4 C 0,0 km/h (0 Bft)
29.09.2021 04:30 10,9 C 17,3 C 12,3 C 12,4 C 12,4 C 1,5 C 88 % 95 % 1016,5 hPa 0,0 l/m 0,0 km/h (0 Bft) O-NO 67 0 min 9,0 C 12,4 C 0,0 km/h (0 Bft)
29.09.2021 04:35 10,8 C 17,3 C 12,3 C 12,5 C 12,5 C 1,7 C 88 % 95 % 1016,3 hPa 0,0 l/m 0,0 km/h (0 Bft) O-NO 67 0 min 8,9 C 12,5 C 0,0 km/h (0 Bft)
29.09.2021 04:40 10,9 C 17,3 C 12,3 C 12,5 C 12,5 C 1,6 C 88 % 95 % 1016,3 hPa 0,0 l/m 0,0 km/h (0 Bft) O-NO 67 0 min 9,0 C 12,5 C 0,0 km/h (0 Bft)
29.09.2021 04:45 10,9 C 17,3 C 12,4 C 12,5 C 12,5 C 1,6 C 88 % 95 % 1016,3 hPa 0,0 l/m 0,0 km/h (0 Bft) O-NO 67 0 min 9,0 C 12,5 C 0,0 km/h (0 Bft)
29.09.2021 04:50 11,0 C 17,3 C 12,4 C 12,5 C 12,5 C 1,5 C 88 % 95 % 1016,3 hPa 0,0 l/m 0,0 km/h (0 Bft) O-NO 67 0 min 9,1 C 12,5 C 0,0 km/h (0 Bft)
29.09.2021 04:55 11,1 C 17,3 C 12,4 C 12,5 C 12,5 C 1,4 C 88 % 95 % 1015,9 hPa 0,0 l/m 0,0 km/h (0 Bft) O-NO 67 0 min 9,2 C 12,5 C 0,0 km/h (0 Bft)
29.09.2021 05:00 11,0 C 17,3 C 12,4 C 12,5 C 12,5 C 1,5 C 88 % 95 % 1015,9 hPa 0,0 l/m 0,3 km/h (0 Bft) O-NO 67 0 min 9,1 C 12,5 C 0,0 km/h (0 Bft)
29.09.2021 05:05 11,0 C 17,3 C 12,5 C 12,5 C 12,5 C 1,5 C 88 % 95 % 1015,9 hPa 0,0 l/m 0,5 km/h (0 Bft) O-NO 67 0 min 9,1 C 12,5 C 3,1 km/h (1 Bft)
29.09.2021 05:10 11,1 C 17,3 C 12,5 C 12,5 C 12,5 C 1,4 C 88 % 95 % 1015,9 hPa 0,0 l/m 0,0 km/h (0 Bft) O-NO 67 0 min 9,2 C 12,5 C 0,0 km/h (0 Bft)
29.09.2021 05:15 11,1 C 17,3 C 12,5 C 12,6 C 12,6 C 1,5 C 88 % 95 % 1015,8 hPa 0,0 l/m 0,2 km/h (0 Bft) O-NO 67 0 min 9,2 C 12,6 C 0,0 km/h (0 Bft)
29.09.2021 05:20 11,2 C 17,4 C 12,5 C 12,6 C 12,6 C 1,4 C 88 % 95 % 1015,8 hPa 0,0 l/m 0,3 km/h (0 Bft) O-NO 67 0 min 9,3 C 12,6 C 1,6 km/h (1 Bft)
29.09.2021 05:25 11,3 C 17,4 C 12,5 C 12,6 C 12,6 C 1,3 C 88 % 95 % 1015,8 hPa 0,0 l/m 0,2 km/h (0 Bft) NO 45 0 min 9,4 C 12,6 C 0,0 km/h (0 Bft)
29.09.2021 05:30 11,2 C 17,3 C 12,5 C 12,5 C 12,5 C 1,3 C 88 % 95 % 1015,8 hPa 0,0 l/m 0,2 km/h (0 Bft) NO 45 0 min 9,3 C 12,5 C 0,0 km/h (0 Bft)
29.09.2021 05:35 11,2 C 17,4 C 12,4 C 12,4 C 12,4 C 1,2 C 88 % 95 % 1015,7 hPa 0,0 l/m 0,0 km/h (0 Bft) NO 45 0 min 9,3 C 12,4 C 0,0 km/h (0 Bft)
29.09.2021 05:40 11,1 C 17,4 C 12,4 C 12,3 C 12,3 C 1,2 C 88 % 95 % 1015,7 hPa 0,0 l/m 0,0 km/h (0 Bft) NO 45 0 min 9,2 C 12,3 C 0,0 km/h (0 Bft)
29.09.2021 05:45 11,2 C 17,4 C 12,4 C 12,4 C 12,4 C 1,2 C 88 % 95 % 1015,7 hPa 0,0 l/m 0,5 km/h (0 Bft) O-NO 67 0 min 9,3 C 12,4 C 4,7 km/h (1 Bft)
29.09.2021 05:50 11,3 C 17,4 C 12,4 C 12,4 C 12,4 C 1,1 C 88 % 95 % 1015,7 hPa 0,0 l/m 1,0 km/h (0 Bft) NO 45 0 min 9,4 C 12,4 C 1,8 km/h (1 Bft)
29.09.2021 05:55 11,2 C 17,3 C 12,4 C 12,5 C 12,5 C 1,3 C 88 % 95 % 1015,8 hPa 0,0 l/m 0,8 km/h (0 Bft) O-NO 67 0 min 9,3 C 12,5 C 0,0 km/h (0 Bft)
29.09.2021 06:00 11,3 C 17,4 C 12,4 C 12,4 C 12,4 C 1,1 C 88 % 95 % 1015,8 hPa 0,0 l/m 0,5 km/h (0 Bft) O-NO 67 0 min 9,4 C 12,4 C 0,0 km/h (0 Bft)
29.09.2021 06:05 11,2 C 17,3 C 12,4 C 12,4 C 12,4 C 1,2 C 88 % 95 % 1015,8 hPa 0,0 l/m 0,3 km/h (0 Bft) O-SO 112 0 min 9,3 C 12,4 C 0,0 km/h (0 Bft)
29.09.2021 06:10 11,2 C 17,3 C 12,4 C 12,4 C 12,4 C 1,2 C 88 % 95 % 1015,8 hPa 0,0 l/m 0,3 km/h (0 Bft) O-SO 112 0 min 9,3 C 12,4 C 0,0 km/h (0 Bft)
29.09.2021 06:15 11,2 C 17,3 C 12,4 C 12,4 C 12,4 C 1,2 C 88 % 95 % 1015,4 hPa 0,0 l/m 0,0 km/h (0 Bft) O-SO 112 0 min 9,3 C 12,4 C 0,0 km/h (0 Bft)
29.09.2021 06:20 11,2 C 17,3 C 12,4 C 12,5 C 12,5 C 1,3 C 88 % 95 % 1015,4 hPa 0,0 l/m 0,0 km/h (0 Bft) O-SO 112 0 min 9,3 C 12,5 C 0,0 km/h (0 Bft)
29.09.2021 06:25 11,2 C 17,3 C 12,4 C 12,5 C 12,5 C 1,3 C 88 % 95 % 1015,4 hPa 0,0 l/m 0,0 km/h (0 Bft) O-SO 112 0 min 9,3 C 12,5 C 0,0 km/h (0 Bft)
29.09.2021 06:30 11,2 C 17,3 C 12,4 C 12,5 C 12,5 C 1,3 C 88 % 95 % 1015,4 hPa 0,0 l/m 0,0 km/h (0 Bft) O-SO 112 0 min 9,3 C 12,5 C 0,0 km/h (0 Bft)
29.09.2021 06:35 11,2 C 17,4 C 12,5 C 12,5 C 12,5 C 1,3 C 88 % 95 % 1015,2 hPa 0,0 l/m 0,0 km/h (0 Bft) O-SO 112 0 min 9,3 C 12,5 C 0,0 km/h (0 Bft)
29.09.2021 06:40 11,2 C 17,4 C 12,5 C 12,5 C 12,5 C 1,3 C 88 % 95 % 1015,2 hPa 0,0 l/m 0,0 km/h (0 Bft) O-SO 112 0 min 9,3 C 12,5 C 0,0 km/h (0 Bft)
29.09.2021 06:45 11,2 C 17,4 C 12,6 C 12,6 C 12,6 C 1,4 C 88 % 95 % 1015,2 hPa 0,0 l/m 0,0 km/h (0 Bft) O-SO 112 0 min 9,3 C 12,6 C 0,0 km/h (0 Bft)
29.09.2021 06:50 11,2 C 17,4 C 12,5 C 12,6 C 12,6 C 1,4 C 88 % 95 % 1015,2 hPa 0,0 l/m 0,0 km/h (0 Bft) O-NO 67 0 min 9,3 C 12,6 C 0,0 km/h (0 Bft)
29.09.2021 06:55 11,3 C 17,4 C 12,6 C 12,7 C 12,7 C 1,4 C 88 % 95 % 1015,1 hPa 0,0 l/m 0,0 km/h (0 Bft) O-NO 67 0 min 9,4 C 12,7 C 0,0 km/h (0 Bft)
29.09.2021 07:00 11,3 C 17,4 C 12,6 C 12,7 C 12,7 C 1,4 C 88 % 95 % 1015,1 hPa 0,0 l/m 0,0 km/h (0 Bft) O-NO 67 0 min 9,4 C 12,7 C 0,0 km/h (0 Bft)
29.09.2021 07:05 11,3 C 17,4 C 12,6 C 12,7 C 12,7 C 1,4 C 88 % 95 % 1015,1 hPa 0,0 l/m 0,0 km/h (0 Bft) O-NO 67 0 min 9,4 C 12,7 C 0,0 km/h (0 Bft)
29.09.2021 07:10 11,3 C 17,4 C 12,7 C 12,7 C 12,7 C 1,4 C 88 % 95 % 1015,1 hPa 0,0 l/m 0,0 km/h (0 Bft) O-NO 67 0 min 9,4 C 12,7 C 0,0 km/h (0 Bft)
29.09.2021 07:15 11,3 C 17,4 C 12,7 C 12,7 C 12,7 C 1,4 C 88 % 95 % 1015,2 hPa 0,0 l/m 0,0 km/h (0 Bft) O-NO 67 0 min 9,4 C 12,7 C 0,0 km/h (0 Bft)
29.09.2021 07:20 11,3 C 17,4 C 12,6 C 12,7 C 12,7 C 1,4 C 88 % 95 % 1015,2 hPa 0,0 l/m 0,0 km/h (0 Bft) O-NO 67 5 min 9,4 C 12,7 C 0,0 km/h (0 Bft)
29.09.2021 07:25 11,3 C 17,4 C 12,7 C 12,7 C 12,7 C 1,4 C 88 % 95 % 1015,2 hPa 0,0 l/m 0,0 km/h (0 Bft) O-SO 112 5 min 9,4 C 12,7 C 0,0 km/h (0 Bft)
29.09.2021 07:30 11,3 C 17,4 C 12,6 C 12,5 C 12,5 C 1,2 C 88 % 95 % 1015,2 hPa 0,0 l/m 0,0 km/h (0 Bft) O-SO 112 5 min 9,4 C 12,5 C 0,0 km/h (0 Bft)
29.09.2021 07:35 11,3 C 17,4 C 12,5 C 12,5 C 12,5 C 1,2 C 88 % 95 % 1015,1 hPa 0,0 l/m 0,0 km/h (0 Bft) O 90 5 min 9,4 C 12,5 C 0,0 km/h (0 Bft)
29.09.2021 07:40 11,2 C 17,4 C 12,6 C 12,5 C 12,5 C 1,3 C 88 % 95 % 1015,1 hPa 0,0 l/m 0,0 km/h (0 Bft) O 90 5 min 9,3 C 12,5 C 0,0 km/h (0 Bft)
29.09.2021 07:45 11,3 C 17,4 C 12,5 C 12,5 C 12,5 C 1,2 C 88 % 95 % 1015,1 hPa 0,0 l/m 0,0 km/h (0 Bft) O 90 5 min 9,4 C 12,5 C 0,0 km/h (0 Bft)
29.09.2021 07:50 11,2 C 17,4 C 12,6 C 12,5 C 12,5 C 1,3 C 88 % 95 % 1015,1 hPa 0,0 l/m 0,0 km/h (0 Bft) O 90 5 min 9,3 C 12,5 C 0,0 km/h (0 Bft)
29.09.2021 07:55 11,3 C 17,4 C 12,6 C 12,6 C 12,6 C 1,3 C 88 % 95 % 1015,1 hPa 0,0 l/m 0,0 km/h (0 Bft) O 90 5 min 9,4 C 12,6 C 0,0 km/h (0 Bft)
29.09.2021 08:00 11,3 C 17,4 C 12,6 C 12,6 C 12,6 C 1,3 C 88 % 95 % 1015,1 hPa 0,0 l/m 0,0 km/h (0 Bft) O 90 5 min 9,4 C 12,6 C 0,0 km/h (0 Bft)
29.09.2021 08:05 11,3 C 17,4 C 12,6 C 12,7 C 12,7 C 1,4 C 88 % 95 % 1015,1 hPa 0,0 l/m 0,0 km/h (0 Bft) O 90 0 min 9,4 C 12,7 C 0,0 km/h (0 Bft)
29.09.2021 08:10 11,3 C 17,4 C 12,7 C 12,7 C 12,7 C 1,4 C 88 % 95 % 1015,1 hPa 0,0 l/m 0,0 km/h (0 Bft) O-SO 112 0 min 9,4 C 12,7 C 0,0 km/h (0 Bft)
29.09.2021 08:15 11,3 C 17,4 C 12,7 C 12,7 C 12,7 C 1,4 C 88 % 95 % 1015,0 hPa 0,0 l/m 0,0 km/h (0 Bft) O-SO 112 0 min 9,4 C 12,7 C 0,0 km/h (0 Bft)
29.09.2021 08:20 11,3 C 17,4 C 12,7 C 12,7 C 12,7 C 1,4 C 88 % 95 % 1015,0 hPa 0,0 l/m 0,0 km/h (0 Bft) O-SO 112 0 min 9,4 C 12,7 C 0,0 km/h (0 Bft)
29.09.2021 08:25 11,4 C 17,4 C 12,7 C 12,8 C 12,8 C 1,4 C 88 % 95 % 1015,0 hPa 0,0 l/m 0,0 km/h (0 Bft) SO 135 0 min 9,5 C 12,8 C 0,0 km/h (0 Bft)
29.09.2021 08:30 11,4 C 17,4 C 12,7 C 12,8 C 12,8 C 1,4 C 88 % 95 % 1015,0 hPa 0,0 l/m 0,0 km/h (0 Bft) SO 135 0 min 9,5 C 12,8 C 0,0 km/h (0 Bft)
29.09.2021 08:35 11,5 C 17,4 C 12,7 C 12,8 C 12,8 C 1,3 C 88 % 95 % 1015,1 hPa 0,0 l/m 0,0 km/h (0 Bft) SO 135 0 min 9,6 C 12,8 C 0,0 km/h (0 Bft)
29.09.2021 08:40 11,5 C 17,4 C 12,7 C 12,7 C 12,7 C 1,2 C 88 % 95 % 1015,1 hPa 0,0 l/m 0,0 km/h (0 Bft) SO 135 0 min 9,6 C 12,7 C 0,0 km/h (0 Bft)
29.09.2021 08:45 11,3 C 17,4 C 12,7 C 12,7 C 12,7 C 1,4 C 88 % 95 % 1015,1 hPa 0,0 l/m 0,0 km/h (0 Bft) SO 135 0 min 9,4 C 12,7 C 0,0 km/h (0 Bft)
29.09.2021 08:50 11,3 C 17,4 C 12,6 C 12,7 C 12,7 C 1,4 C 88 % 95 % 1015,1 hPa 0,7 l/m 0,0 km/h (0 Bft) SO 135 0 min 9,4 C 12,7 C 0,0 km/h (0 Bft)
29.09.2021 08:55 11,2 C 17,3 C 12,4 C 12,6 C 12,6 C 1,4 C 88 % 95 % 1014,8 hPa 2,1 l/m 0,0 km/h (0 Bft) SO 135 0 min 9,3 C 12,6 C 0,0 km/h (0 Bft)
29.09.2021 09:00 11,2 C 17,3 C 12,3 C 12,6 C 12,6 C 1,4 C 88 % 95 % 1014,8 hPa 1,4 l/m 0,0 km/h (0 Bft) SO 135 0 min 9,3 C 12,6 C 0,0 km/h (0 Bft)
29.09.2021 09:05 11,2 C 17,3 C 12,4 C 12,7 C 12,7 C 1,5 C 88 % 95 % 1014,8 hPa 0,7 l/m 0,0 km/h (0 Bft) SO 135 0 min 9,3 C 12,7 C 0,0 km/h (0 Bft)
29.09.2021 09:10 11,2 C 17,3 C 12,5 C 12,7 C 12,7 C 1,5 C 88 % 95 % 1014,8 hPa 0,0 l/m 0,0 km/h (0 Bft) SO 135 0 min 9,3 C 12,7 C 0,0 km/h (0 Bft)
29.09.2021 09:15 11,3 C 17,3 C 12,5 C 12,9 C 12,9 C 1,6 C 88 % 95 % 1015,0 hPa 0,0 l/m 0,0 km/h (0 Bft) SO 135 0 min 9,4 C 12,9 C 0,0 km/h (0 Bft)
29.09.2021 09:20 11,4 C 17,3 C 12,6 C 13,0 C 13,0 C 1,6 C 88 % 95 % 1015,0 hPa 0,0 l/m 0,0 km/h (0 Bft) SO 135 0 min 9,5 C 13,0 C 0,0 km/h (0 Bft)
29.09.2021 09:25 11,4 C 17,3 C 12,6 C 13,2 C 13,2 C 1,8 C 88 % 95 % 1015,0 hPa 0,0 l/m 0,0 km/h (0 Bft) SO 135 0 min 9,5 C 13,2 C 0,0 km/h (0 Bft)
29.09.2021 09:30 11,5 C 17,3 C 12,6 C 13,3 C 13,3 C 1,8 C 88 % 95 % 1015,0 hPa 0,0 l/m 0,0 km/h (0 Bft) SO 135 0 min 9,6 C 13,3 C 0,0 km/h (0 Bft)
29.09.2021 09:35 11,6 C 17,3 C 12,7 C 13,2 C 13,2 C 1,6 C 88 % 95 % 1014,9 hPa 0,0 l/m 0,0 km/h (0 Bft) SO 135 0 min 9,7 C 13,2 C 0,0 km/h (0 Bft)
29.09.2021 09:40 11,5 C 17,3 C 12,7 C 13,1 C 13,1 C 1,6 C 88 % 95 % 1014,9 hPa 0,0 l/m 0,0 km/h (0 Bft) SO 135 0 min 9,6 C 13,1 C 0,0 km/h (0 Bft)
29.09.2021 09:45 11,6 C 17,3 C 12,6 C 13,2 C 13,2 C 1,6 C 88 % 95 % 1014,9 hPa 0,0 l/m 0,0 km/h (0 Bft) SO 135 0 min 9,7 C 13,2 C 0,0 km/h (0 Bft)
29.09.2021 09:50 11,7 C 17,3 C 12,7 C 13,2 C 13,2 C 1,5 C 88 % 95 % 1014,9 hPa 0,0 l/m 0,0 km/h (0 Bft) SO 135 0 min 9,8 C 13,2 C 0,0 km/h (0 Bft)
29.09.2021 09:55 11,6 C 17,3 C 12,7 C 13,3 C 13,3 C 1,7 C 88 % 95 % 1015,2 hPa 0,0 l/m 0,0 km/h (0 Bft) SO 135 0 min 9,7 C 13,3 C 0,0 km/h (0 Bft)
29.09.2021 10:00 11,6 C 17,3 C 12,7 C 13,3 C 13,3 C 1,7 C 88 % 95 % 1015,2 hPa 0,0 l/m 0,0 km/h (0 Bft) SO 135 0 min 9,7 C 13,3 C 0,0 km/h (0 Bft)
29.09.2021 10:05 11,7 C 17,3 C 12,7 C 13,3 C 13,3 C 1,6 C 88 % 95 % 1015,2 hPa 0,0 l/m 0,0 km/h (0 Bft) SO 135 0 min 9,8 C 13,3 C 0,0 km/h (0 Bft)
29.09.2021 10:10 11,7 C 17,3 C 12,7 C 13,3 C 13,3 C 1,6 C 88 % 95 % 1015,2 hPa 0,0 l/m 0,0 km/h (0 Bft) SO 135 0 min 9,8 C 13,3 C 0,0 km/h (0 Bft)
29.09.2021 10:15 11,8 C 17,3 C 12,8 C 13,4 C 13,4 C 1,6 C 88 % 95 % 1015,4 hPa 0,0 l/m 0,0 km/h (0 Bft) SO 135 0 min 9,9 C 13,4 C 0,0 km/h (0 Bft)
29.09.2021 10:20 11,8 C 17,3 C 12,8 C 13,5 C 13,5 C 1,7 C 88 % 95 % 1015,4 hPa 0,0 l/m 0,0 km/h (0 Bft) SO 135 0 min 9,9 C 13,5 C 0,0 km/h (0 Bft)
29.09.2021 10:25 11,9 C 17,3 C 12,8 C 13,5 C 13,5 C 1,6 C 88 % 95 % 1015,4 hPa 0,0 l/m 0,0 km/h (0 Bft) SO 135 0 min 10,0 C 13,5 C 0,0 km/h (0 Bft)
29.09.2021 10:30 11,9 C 17,3 C 12,8 C 13,5 C 13,5 C 1,6 C 88 % 95 % 1015,4 hPa 0,0 l/m 0,0 km/h (0 Bft) SO 135 0 min 10,0 C 13,5 C 0,0 km/h (0 Bft)
29.09.2021 10:35 11,9 C 17,4 C 12,9 C 13,5 C 13,5 C 1,6 C 88 % 94 % 1015,4 hPa 0,0 l/m 0,0 km/h (0 Bft) SO 135 0 min 10,0 C 13,5 C 0,0 km/h (0 Bft)
29.09.2021 10:40 12,0 C 17,4 C 12,9 C 13,5 C 13,5 C 1,5 C 88 % 94 % 1015,4 hPa 0,0 l/m 0,0 km/h (0 Bft) SO 135 0 min 10,1 C 13,5 C 0,0 km/h (0 Bft)
29.09.2021 10:45 12,1 C 17,4 C 13,0 C 13,5 C 13,5 C 1,4 C 88 % 94 % 1015,4 hPa 0,0 l/m 0,0 km/h (0 Bft) S 180 0 min 10,2 C 13,5 C 0,0 km/h (0 Bft)
29.09.2021 10:50 12,0 C 17,4 C 13,0 C 13,5 C 13,5 C 1,5 C 88 % 94 % 1015,4 hPa 0,0 l/m 0,2 km/h (0 Bft) S 180 0 min 10,1 C 13,5 C 0,0 km/h (0 Bft)
29.09.2021 10:55 12,1 C 17,4 C 13,0 C 13,5 C 13,5 C 1,4 C 88 % 94 % 1015,7 hPa 0,0 l/m 0,2 km/h (0 Bft) SO 135 0 min 10,2 C 13,5 C 2,9 km/h (1 Bft)
29.09.2021 11:00 12,0 C 17,4 C 13,0 C 13,5 C 13,5 C 1,5 C 88 % 94 % 1015,7 hPa 0,0 l/m 0,0 km/h (0 Bft) S-SO 157 0 min 10,1 C 13,5 C 0,0 km/h (0 Bft)
29.09.2021 11:05 12,1 C 17,4 C 13,1 C 13,5 C 13,5 C 1,4 C 88 % 94 % 1015,7 hPa 0,0 l/m 0,2 km/h (0 Bft) S 180 0 min 10,2 C 13,5 C 0,0 km/h (0 Bft)
29.09.2021 11:10 12,1 C 17,4 C 13,1 C 13,7 C 13,7 C 1,6 C 88 % 94 % 1015,7 hPa 0,0 l/m 0,2 km/h (0 Bft) S 180 0 min 10,2 C 13,7 C 0,0 km/h (0 Bft)
29.09.2021 11:15 12,3 C 17,4 C 13,3 C 13,8 C 13,8 C 1,5 C 88 % 94 % 1015,4 hPa 0,7 l/m 0,0 km/h (0 Bft) S 180 0 min 10,4 C 13,8 C 0,0 km/h (0 Bft)
29.09.2021 11:20 12,4 C 17,3 C 13,3 C 13,9 C 13,9 C 1,5 C 88 % 94 % 1015,4 hPa 0,0 l/m 0,0 km/h (0 Bft) S 180 0 min 10,5 C 13,9 C 0,0 km/h (0 Bft)
29.09.2021 11:25 12,5 C 17,4 C 13,4 C 13,9 C 13,9 C 1,4 C 88 % 94 % 1015,4 hPa 0,0 l/m 0,2 km/h (0 Bft) W-SW 247 0 min 10,6 C 13,9 C 0,0 km/h (0 Bft)
29.09.2021 11:30 12,5 C 17,4 C 13,4 C 14,1 C 14,1 C 1,6 C 88 % 94 % 1015,4 hPa 0,0 l/m 0,2 km/h (0 Bft) SO 135 0 min 10,6 C 14,1 C 1,8 km/h (1 Bft)
29.09.2021 11:35 12,7 C 17,4 C 13,5 C 14,2 C 14,2 C 1,5 C 88 % 94 % 1015,2 hPa 0,0 l/m 0,2 km/h (0 Bft) S-SO 157 0 min 10,8 C 14,2 C 0,0 km/h (0 Bft)
29.09.2021 11:40 12,7 C 17,4 C 13,7 C 14,4 C 14,4 C 1,7 C 88 % 94 % 1015,2 hPa 0,0 l/m 0,0 km/h (0 Bft) S-SW 202 0 min 10,8 C 14,4 C 0,0 km/h (0 Bft)
29.09.2021 11:45 12,9 C 17,4 C 13,9 C 14,7 C 14,7 C 1,8 C 88 % 94 % 1015,2 hPa 0,0 l/m 0,2 km/h (0 Bft) S 180 0 min 11,0 C 14,7 C 0,0 km/h (0 Bft)
29.09.2021 11:50 13,1 C 17,4 C 13,9 C 14,8 C 14,8 C 1,7 C 88 % 94 % 1015,2 hPa 0,0 l/m 0,3 km/h (0 Bft) S-SW 202 0 min 11,2 C 14,8 C 0,0 km/h (0 Bft)
29.09.2021 11:55 13,1 C 17,4 C 14,0 C 14,9 C 14,9 C 1,8 C 88 % 94 % 1015,3 hPa 0,0 l/m 0,2 km/h (0 Bft) S-SO 157 0 min 11,2 C 14,9 C 0,0 km/h (0 Bft)
29.09.2021 12:00 13,3 C 17,4 C 14,1 C 15,0 C 15,0 C 1,7 C 88 % 94 % 1015,3 hPa 0,0 l/m 0,0 km/h (0 Bft) SW 225 0 min 11,4 C 15,0 C 0,0 km/h (0 Bft)
29.09.2021 12:05 13,3 C 17,5 C 14,2 C 15,2 C 15,2 C 1,9 C 88 % 94 % 1015,3 hPa 0,0 l/m 0,2 km/h (0 Bft) S 180 0 min 11,4 C 15,2 C 1,9 km/h (1 Bft)
29.09.2021 12:10 13,5 C 17,5 C 14,3 C 15,3 C 15,3 C 1,8 C 89 % 94 % 1015,3 hPa 0,0 l/m 0,2 km/h (0 Bft) SW 225 0 min 11,7 C 15,3 C 0,0 km/h (0 Bft)
29.09.2021 12:15 13,6 C 17,5 C 14,4 C 15,6 C 15,6 C 2,0 C 89 % 94 % 1015,1 hPa 0,0 l/m 0,2 km/h (0 Bft) SO 135 0 min 11,8 C 15,6 C 0,0 km/h (0 Bft)
29.09.2021 12:20 13,8 C 17,5 C 14,5 C 15,8 C 15,8 C 2,0 C 89 % 94 % 1015,1 hPa 0,0 l/m 0,2 km/h (0 Bft) S 180 0 min 12,0 C 15,8 C 0,0 km/h (0 Bft)
29.09.2021 12:25 13,9 C 17,5 C 14,6 C 15,9 C 15,9 C 2,0 C 88 % 94 % 1015,1 hPa 0,0 l/m 0,2 km/h (0 Bft) SW 225 0 min 11,9 C 15,9 C 0,0 km/h (0 Bft)
29.09.2021 12:30 13,9 C 17,5 C 14,6 C 15,9 C 15,9 C 2,0 C 88 % 94 % 1015,1 hPa 0,0 l/m 0,3 km/h (0 Bft) S 180 0 min 11,9 C 15,9 C 0,0 km/h (0 Bft)
29.09.2021 12:35 14,1 C 17,5 C 14,7 C 16,0 C 16,0 C 1,9 C 88 % 94 % 1014,9 hPa 0,0 l/m 0,3 km/h (0 Bft) O-SO 112 0 min 12,1 C 16,0 C 0,0 km/h (0 Bft)
29.09.2021 12:40 14,0 C 17,5 C 14,6 C 15,9 C 15,9 C 1,9 C 89 % 94 % 1014,9 hPa 0,0 l/m 0,2 km/h (0 Bft) W-SW 247 0 min 12,2 C 15,9 C 2,7 km/h (1 Bft)
29.09.2021 12:45 14,2 C 17,5 C 14,7 C 16,0 C 16,0 C 1,8 C 88 % 94 % 1014,9 hPa 0,0 l/m 0,2 km/h (0 Bft) S 180 0 min 12,2 C 16,0 C 0,0 km/h (0 Bft)
29.09.2021 12:50 14,3 C 17,5 C 14,8 C 16,2 C 16,2 C 1,9 C 88 % 94 % 1014,9 hPa 0,0 l/m 0,3 km/h (0 Bft) W-SW 247 0 min 12,3 C 16,2 C 1,6 km/h (1 Bft)
29.09.2021 12:55 14,3 C 17,5 C 14,8 C 16,4 C 16,4 C 2,1 C 88 % 94 % 1014,8 hPa 0,0 l/m 0,3 km/h (0 Bft) S 180 0 min 12,3 C 16,4 C 1,8 km/h (1 Bft)
29.09.2021 13:00 14,2 C 17,5 C 14,7 C 16,4 C 16,4 C 2,2 C 88 % 94 % 1014,8 hPa 0,0 l/m 0,5 km/h (0 Bft) W 270 0 min 12,2 C 16,4 C 5,0 km/h (1 Bft)
29.09.2021 13:05 14,3 C 17,5 C 14,8 C 16,4 C 16,4 C 2,1 C 88 % 94 % 1014,8 hPa 0,0 l/m 1,0 km/h (0 Bft) SO 135 0 min 12,3 C 16,4 C 1,9 km/h (1 Bft)
29.09.2021 13:10 14,5 C 17,4 C 14,9 C 17,0 C 17,0 C 2,5 C 88 % 94 % 1014,8 hPa 0,0 l/m 1,0 km/h (0 Bft) S 180 0 min 12,5 C 17,0 C 0,0 km/h (0 Bft)
29.09.2021 13:15 14,5 C 17,5 C 14,9 C 17,6 C 17,6 C 3,1 C 88 % 94 % 1014,9 hPa 0,0 l/m 1,0 km/h (0 Bft) S 180 0 min 12,5 C 17,6 C 6,9 km/h (2 Bft)
29.09.2021 13:20 14,6 C 17,5 C 15,1 C 18,1 C 18,1 C 3,5 C 88 % 94 % 1014,9 hPa 0,0 l/m 1,0 km/h (0 Bft) S 180 5 min 12,6 C 18,1 C 1,9 km/h (1 Bft)
29.09.2021 13:25 14,9 C 17,5 C 15,4 C 20,2 C 20,2 C 5,3 C 88 % 94 % 1014,9 hPa 0,0 l/m 1,1 km/h (1 Bft) SW 225 5 min 12,9 C 20,2 C 3,4 km/h (1 Bft)
29.09.2021 13:30 15,0 C 17,4 C 15,3 C 20,3 C 20,3 C 5,3 C 88 % 94 % 1014,9 hPa 0,0 l/m 1,6 km/h (1 Bft) SW 225 5 min 13,0 C 20,3 C 1,9 km/h (1 Bft)
29.09.2021 13:35 15,1 C 17,4 C 15,5 C 21,8 C 21,8 C 6,7 C 88 % 94 % 1014,6 hPa 0,0 l/m 2,1 km/h (1 Bft) S 180 5 min 13,1 C 21,8 C 12,1 km/h (2 Bft)
29.09.2021 13:40 15,2 C 17,4 C 15,4 C 21,9 C 21,9 C 6,7 C 88 % 95 % 1014,6 hPa 0,0 l/m 2,3 km/h (1 Bft) W 270 5 min 13,2 C 21,9 C 4,2 km/h (1 Bft)
29.09.2021 13:45 15,2 C 17,4 C 15,4 C 22,4 C 22,4 C 7,2 C 87 % 95 % 1014,6 hPa 0,0 l/m 3,1 km/h (1 Bft) SW 225 5 min 13,0 C 22,4 C 6,6 km/h (2 Bft)
29.09.2021 13:50 15,3 C 17,4 C 15,5 C 23,0 C 23,0 C 7,7 C 87 % 95 % 1014,6 hPa 0,0 l/m 3,1 km/h (1 Bft) S 180 5 min 13,1 C 23,0 C 2,9 km/h (1 Bft)
29.09.2021 13:55 15,3 C 17,3 C 15,4 C 23,4 C 23,4 C 8,1 C 87 % 95 % 1014,2 hPa 0,0 l/m 4,2 km/h (1 Bft) S-SW 202 5 min 13,1 C 23,4 C 11,3 km/h (2 Bft)
29.09.2021 14:00 15,4 C 17,3 C 15,2 C 23,4 C 23,4 C 8,0 C 87 % 95 % 1014,2 hPa 0,0 l/m 4,7 km/h (1 Bft) SW 225 5 min 13,2 C 23,4 C 4,8 km/h (1 Bft)
29.09.2021 14:05 16,4 C 17,2 C 15,0 C 23,0 C 23,0 C 6,6 C 87 % 95 % 1014,2 hPa 0,0 l/m 4,3 km/h (1 Bft) SW 225 5 min 14,2 C 23,0 C 6,6 km/h (2 Bft)
29.09.2021 14:10 16,9 C 17,2 C 15,1 C 23,2 C 23,2 C 6,3 C 86 % 95 % 1014,2 hPa 0,0 l/m 3,9 km/h (1 Bft) W 270 5 min 14,5 C 23,2 C 6,3 km/h (2 Bft)
29.09.2021 14:15 17,2 C 17,2 C 15,1 C 23,3 C 23,3 C 6,1 C 84 % 94 % 1014,2 hPa 0,0 l/m 4,5 km/h (1 Bft) SO 135 5 min 14,5 C 23,3 C 15,3 km/h (3 Bft)
29.09.2021 14:20 17,3 C 17,2 C 15,2 C 23,1 C 23,1 C 5,8 C 81 % 94 % 1014,2 hPa 0,0 l/m 5,0 km/h (1 Bft) SW 225 5 min 14,0 C 23,1 C 6,0 km/h (2 Bft)
29.09.2021 14:25 17,3 C 17,2 C 15,4 C 23,1 C 23,1 C 5,8 C 78 % 94 % 1014,2 hPa 0,0 l/m 5,3 km/h (1 Bft) S-SW 202 5 min 13,4 C 23,1 C 4,8 km/h (1 Bft)
29.09.2021 14:30 17,3 C 17,1 C 15,5 C 23,0 C 23,0 C 5,7 C 76 % 93 % 1014,2 hPa 0,0 l/m 4,7 km/h (1 Bft) S 180 5 min 13,0 C 23,0 C 4,5 km/h (1 Bft)
29.09.2021 14:35 17,4 C 17,1 C 15,8 C 23,4 C 23,4 C 6,0 C 76 % 93 % 1014,3 hPa 0,0 l/m 3,7 km/h (1 Bft) W-SW 247 5 min 13,1 C 23,4 C 7,9 km/h (2 Bft)
29.09.2021 14:40 17,5 C 17,1 C 15,9 C 23,6 C 23,6 C 6,1 C 74 % 93 % 1014,3 hPa 0,0 l/m 3,5 km/h (1 Bft) S-SW 202 5 min 12,8 C 23,6 C 2,6 km/h (1 Bft)
29.09.2021 14:45 17,6 C 17,1 C 16,2 C 23,7 C 23,7 C 6,1 C 74 % 93 % 1014,3 hPa 0,0 l/m 3,5 km/h (1 Bft) S 180 5 min 12,9 C 23,7 C 2,9 km/h (1 Bft)
29.09.2021 14:49 17,7 C 17,1 C 16,4 C 24,0 C 24,0 C 6,3 C 73 % 93 % 1014,3 hPa 0,0 l/m 3,1 km/h (1 Bft) SW 225 4 min 12,8 C 24,0 C 4,7 km/h (1 Bft)
29.09.2021 14:50 17,7 C 17,1 C 16,4 C 24,0 C 24,0 C 6,3 C 73 % 93 % 1014,3 hPa 0,0 l/m 3,1 km/h (1 Bft) SW 225 1 min 12,8 C 24,0 C 4,7 km/h (1 Bft)
29.09.2021 14:55 17,7 C 17,1 C 16,5 C 24,1 C 24,1 C 6,4 C 70 % 91 % 1014,5 hPa 0,0 l/m 3,7 km/h (1 Bft) S-SO 157 5 min 12,2 C 24,1 C 4,5 km/h (1 Bft)
29.09.2021 15:00 17,7 C 17,0 C 16,6 C 24,0 C 24,0 C 6,3 C 69 % 91 % 1014,5 hPa 0,0 l/m 4,0 km/h (1 Bft) SO 135 5 min 11,9 C 24,0 C 5,6 km/h (1 Bft)
29.09.2021 15:05 17,7 C 17,0 C 16,7 C 24,0 C 24,0 C 6,3 C 68 % 91 % 1014,5 hPa 0,0 l/m 3,5 km/h (1 Bft) S 180 5 min 11,7 C 24,0 C 9,3 km/h (2 Bft)
29.09.2021 15:10 17,8 C 16,9 C 16,8 C 24,0 C 24,0 C 6,2 C 67 % 90 % 1014,5 hPa 0,0 l/m 3,5 km/h (1 Bft) SW 225 5 min 11,6 C 24,0 C 5,3 km/h (1 Bft)
29.09.2021 15:15 17,8 C 16,9 C 17,0 C 23,9 C 23,9 C 6,1 C 66 % 90 % 1014,9 hPa 0,0 l/m 4,2 km/h (1 Bft) SO 135 5 min 11,4 C 23,9 C 4,5 km/h (1 Bft)
29.09.2021 15:20 17,9 C 16,9 C 17,1 C 24,0 C 24,0 C 6,1 C 68 % 91 % 1014,9 hPa 0,0 l/m 3,2 km/h (1 Bft) O-SO 112 5 min 11,9 C 24,0 C 1,6 km/h (1 Bft)
29.09.2021 15:25 17,8 C 16,8 C 17,3 C 24,3 C 24,3 C 6,5 C 66 % 90 % 1014,9 hPa 0,0 l/m 2,6 km/h (1 Bft) SW 225 5 min 11,4 C 24,3 C 6,4 km/h (2 Bft)
29.09.2021 15:30 17,8 C 16,8 C 17,3 C 24,2 C 24,2 C 6,4 C 66 % 91 % 1014,9 hPa 0,0 l/m 3,1 km/h (1 Bft) SW 225 5 min 11,4 C 24,2 C 4,2 km/h (1 Bft)
29.09.2021 15:35 17,9 C 16,8 C 17,4 C 24,3 C 24,3 C 6,4 C 67 % 90 % 1014,8 hPa 0,0 l/m 2,7 km/h (1 Bft) SW 225 5 min 11,7 C 24,3 C 4,8 km/h (1 Bft)
29.09.2021 15:40 18,0 C 16,8 C 17,5 C 24,3 C 24,3 C 6,3 C 66 % 90 % 1014,8 hPa 0,0 l/m 2,7 km/h (1 Bft) W 270 5 min 11,6 C 24,3 C 3,1 km/h (1 Bft)
29.09.2021 15:45 18,0 C 16,7 C 17,6 C 24,4 C 24,4 C 6,4 C 66 % 89 % 1014,8 hPa 0,0 l/m 3,1 km/h (1 Bft) W-NW 292 5 min 11,6 C 24,4 C 4,8 km/h (1 Bft)
29.09.2021 15:50 18,0 C 16,7 C 17,6 C 24,4 C 24,4 C 6,4 C 66 % 89 % 1014,8 hPa 0,0 l/m 2,7 km/h (1 Bft) O-NO 67 5 min 11,6 C 24,4 C 1,8 km/h (1 Bft)
29.09.2021 15:55 18,1 C 16,7 C 17,6 C 24,4 C 24,4 C 6,3 C 66 % 88 % 1014,8 hPa 0,0 l/m 2,9 km/h (1 Bft) SW 225 5 min 11,6 C 24,4 C 5,3 km/h (1 Bft)
29.09.2021 16:00 18,0 C 16,7 C 17,7 C 24,2 C 24,2 C 6,2 C 66 % 87 % 1014,8 hPa 0,0 l/m 2,6 km/h (1 Bft) SW 225 5 min 11,6 C 24,2 C 3,4 km/h (1 Bft)
29.09.2021 16:05 18,1 C 16,7 C 17,8 C 24,2 C 24,2 C 6,1 C 66 % 88 % 1014,8 hPa 0,0 l/m 2,4 km/h (1 Bft) SW 225 5 min 11,6 C 24,2 C 1,9 km/h (1 Bft)
29.09.2021 16:11 18,1 C 16,7 C 17,9 C 23,7 C 23,7 C 5,6 C 66 % 86 % 1014,8 hPa 0,0 l/m 2,4 km/h (1 Bft) N 0 6 min 11,6 C 23,7 C 3,5 km/h (1 Bft)
29.09.2021 16:26 18,2 C 16,6 C 17,9 C 20,1 C 20,1 C 1,9 C 65 % 83 % 1014,9 hPa 0,0 l/m 2,3 km/h (1 Bft) S 180 0 min 11,5 C 20,1 C 1,9 km/h (1 Bft)
29.09.2021 16:27 18,2 C 16,6 C 17,9 C 20,1 C 20,1 C 1,9 C 65 % 83 % 1014,9 hPa 0,0 l/m 2,3 km/h (1 Bft) S 180 0 min 11,5 C 20,1 C 1,9 km/h (1 Bft)
29.09.2021 16:41 18,3 C 16,5 C 17,7 C 19,2 C 19,2 C 0,9 C 66 % 85 % 1015,1 hPa 0,0 l/m 1,4 km/h (1 Bft) SW 225 0 min 11,8 C 19,2 C 0,0 km/h (0 Bft)
29.09.2021 16:45 18,3 C 16,5 C 17,5 C 18,9 C 18,9 C 0,6 C 66 % 85 % 1015,1 hPa 0,0 l/m 0,8 km/h (0 Bft) SO 135 0 min 11,8 C 18,9 C 0,0 km/h (0 Bft)
29.09.2021 16:50 18,1 C 16,5 C 17,5 C 18,8 C 18,8 C 0,7 C 66 % 84 % 1015,1 hPa 0,0 l/m 1,3 km/h (1 Bft) SO 135 0 min 11,6 C 18,8 C 7,2 km/h (2 Bft)
29.09.2021 16:55 18,0 C 16,5 C 17,1 C 18,4 C 18,4 C 0,4 C 65 % 83 % 1015,1 hPa 0,0 l/m 1,8 km/h (1 Bft) W 270 0 min 11,3 C 18,4 C 2,4 km/h (1 Bft)
29.09.2021 17:00 17,9 C 16,5 C 17,0 C 18,2 C 18,2 C 0,3 C 65 % 84 % 1015,1 hPa 0,0 l/m 2,3 km/h (1 Bft) S-SO 157 0 min 11,2 C 18,2 C 3,5 km/h (1 Bft)
29.09.2021 17:05 17,9 C 16,5 C 17,1 C 18,4 C 18,4 C 0,5 C 66 % 84 % 1015,1 hPa 0,0 l/m 1,8 km/h (1 Bft) S 180 0 min 11,5 C 18,4 C 2,3 km/h (1 Bft)
29.09.2021 17:10 17,9 C 16,5 C 17,0 C 18,3 C 18,3 C 0,4 C 66 % 85 % 1015,1 hPa 0,0 l/m 1,1 km/h (1 Bft) W-SW 247 0 min 11,5 C 18,3 C 2,7 km/h (1 Bft)
29.09.2021 17:15 17,9 C 16,5 C 16,9 C 18,0 C 18,0 C 0,1 C 66 % 85 % 1015,0 hPa 0,0 l/m 1,1 km/h (1 Bft) S-SO 157 0 min 11,5 C 18,0 C 1,6 km/h (1 Bft)
29.09.2021 17:20 17,8 C 16,5 C 17,0 C 17,9 C 17,9 C 0,1 C 66 % 85 % 1015,0 hPa 0,0 l/m 1,3 km/h (1 Bft) S-SW 202 0 min 11,4 C 17,9 C 1,8 km/h (1 Bft)
29.09.2021 17:25 17,9 C 16,5 C 17,1 C 18,0 C 18,0 C 0,1 C 66 % 84 % 1015,0 hPa 0,0 l/m 1,6 km/h (1 Bft) S 180 0 min 11,5 C 18,0 C 3,9 km/h (1 Bft)
29.09.2021 17:30 17,9 C 16,5 C 17,1 C 18,1 C 18,1 C 0,2 C 66 % 83 % 1015,0 hPa 0,0 l/m 2,1 km/h (1 Bft) SO 135 0 min 11,5 C 18,1 C 5,0 km/h (1 Bft)
29.09.2021 17:35 17,8 C 16,5 C 16,9 C 18,1 C 18,1 C 0,3 C 65 % 81 % 1015,1 hPa 0,0 l/m 2,6 km/h (1 Bft) O-SO 112 0 min 11,1 C 18,1 C 4,2 km/h (1 Bft)
29.09.2021 17:40 17,7 C 16,5 C 16,9 C 18,3 C 18,3 C 0,6 C 65 % 82 % 1015,1 hPa 0,0 l/m 2,4 km/h (1 Bft) SO 135 0 min 11,0 C 18,3 C 2,9 km/h (1 Bft)
29.09.2021 17:45 17,7 C 16,5 C 17,0 C 18,6 C 18,6 C 0,9 C 66 % 82 % 1015,1 hPa 0,0 l/m 1,6 km/h (1 Bft) W-SW 247 0 min 11,3 C 18,6 C 1,9 km/h (1 Bft)
29.09.2021 17:50 17,8 C 16,5 C 17,0 C 18,5 C 18,5 C 0,7 C 66 % 81 % 1015,1 hPa 0,0 l/m 1,4 km/h (1 Bft) W-SW 247 0 min 11,4 C 18,5 C 0,0 km/h (0 Bft)
29.09.2021 17:55 17,8 C 16,5 C 16,7 C 18,1 C 18,1 C 0,3 C 65 % 82 % 1015,2 hPa 0,0 l/m 1,3 km/h (1 Bft) W-SW 247 0 min 11,1 C 18,1 C 3,2 km/h (1 Bft)
29.09.2021 18:00 17,6 C 16,5 C 16,5 C 17,6 C 17,6 C 0,0 C 65 % 82 % 1015,2 hPa 0,0 l/m 1,4 km/h (1 Bft) W-NW 292 0 min 10,9 C 17,6 C 2,3 km/h (1 Bft)
29.09.2021 18:05 17,5 C 16,5 C 16,5 C 17,5 C 17,4 C 0,0 C 65 % 82 % 1015,2 hPa 0,0 l/m 1,9 km/h (1 Bft) S 180 0 min 10,8 C 17,4 C 2,1 km/h (1 Bft)
29.09.2021 18:10 17,5 C 16,5 C 16,4 C 17,6 C 17,6 C 0,1 C 66 % 82 % 1015,2 hPa 0,0 l/m 1,4 km/h (1 Bft) S 180 0 min 11,1 C 17,6 C 1,8 km/h (1 Bft)
29.09.2021 18:15 17,4 C 16,5 C 16,1 C 17,3 C 17,2 C 0,0 C 66 % 82 % 1015,6 hPa 0,0 l/m 0,8 km/h (0 Bft) S 180 0 min 11,0 C 17,2 C 0,0 km/h (0 Bft)
29.09.2021 18:20 17,2 C 16,5 C 15,9 C 17,1 C 16,8 C 0,0 C 66 % 83 % 1015,6 hPa 0,0 l/m 0,6 km/h (0 Bft) SW 225 0 min 10,8 C 16,8 C 0,0 km/h (0 Bft)
29.09.2021 18:25 17,0 C 16,5 C 15,5 C 16,7 C 16,2 C 0,0 C 67 % 83 % 1015,6 hPa 0,0 l/m 0,0 km/h (0 Bft) SW 225 0 min 10,8 C 16,2 C 0,0 km/h (0 Bft)
29.09.2021 18:30 16,8 C 16,5 C 15,3 C 16,5 C 15,8 C 0,0 C 68 % 83 % 1015,6 hPa 0,0 l/m 0,2 km/h (0 Bft) S 180 0 min 10,9 C 15,8 C 0,0 km/h (0 Bft)
29.09.2021 18:35 16,5 C 16,5 C 15,1 C 16,1 C 15,4 C 0,0 C 68 % 84 % 1015,8 hPa 0,0 l/m 0,2 km/h (0 Bft) SO 135 0 min 10,6 C 15,4 C 0,0 km/h (0 Bft)
29.09.2021 18:40 16,4 C 16,5 C 15,0 C 16,0 C 15,3 C 0,0 C 69 % 84 % 1015,8 hPa 0,0 l/m 0,0 km/h (0 Bft) SW 225 0 min 10,7 C 15,3 C 0,0 km/h (0 Bft)
29.09.2021 18:45 16,2 C 16,5 C 14,9 C 15,9 C 15,2 C 0,0 C 70 % 85 % 1015,8 hPa 0,0 l/m 0,2 km/h (0 Bft) S 180 0 min 10,7 C 15,2 C 0,0 km/h (0 Bft)
29.09.2021 18:50 16,1 C 16,5 C 15,0 C 15,8 C 15,3 C 0,0 C 70 % 86 % 1015,8 hPa 0,0 l/m 0,3 km/h (0 Bft) W-SW 247 0 min 10,6 C 15,3 C 2,3 km/h (1 Bft)
29.09.2021 18:55 16,0 C 16,4 C 15,1 C 15,9 C 15,6 C 0,0 C 71 % 84 % 1015,9 hPa 0,0 l/m 1,6 km/h (1 Bft) S-SW 202 0 min 10,7 C 15,6 C 5,0 km/h (1 Bft)
29.09.2021 19:00 16,1 C 16,4 C 15,1 C 15,9 C 15,6 C 0,0 C 71 % 83 % 1015,9 hPa 0,0 l/m 3,7 km/h (1 Bft) SW 225 0 min 10,8 C 15,6 C 11,9 km/h (2 Bft)
29.09.2021 19:05 15,7 C 16,5 C 14,7 C 15,3 C 14,6 C 0,0 C 73 % 84 % 1015,9 hPa 0,0 l/m 6,1 km/h (2 Bft) SW 225 0 min 10,9 C 14,6 C 6,1 km/h (2 Bft)
29.09.2021 19:10 15,2 C 16,5 C 14,4 C 14,8 C 14,1 C 0,0 C 74 % 85 % 1015,9 hPa 0,0 l/m 6,1 km/h (2 Bft) SW 225 0 min 10,6 C 14,1 C 6,1 km/h (2 Bft)
29.09.2021 19:15 14,7 C 16,5 C 14,1 C 14,3 C 13,4 C 0,0 C 75 % 86 % 1016,8 hPa 0,0 l/m 4,0 km/h (1 Bft) SW 225 0 min 10,3 C 13,4 C 2,7 km/h (1 Bft)
29.09.2021 19:20 14,4 C 16,5 C 13,8 C 13,9 C 12,9 C 0,0 C 77 % 87 % 1016,8 hPa 0,0 l/m 3,1 km/h (1 Bft) S 180 0 min 10,4 C 12,9 C 5,8 km/h (2 Bft)
29.09.2021 19:25 14,1 C 16,5 C 13,6 C 13,6 C 12,5 C 0,0 C 78 % 87 % 1016,8 hPa 0,0 l/m 2,7 km/h (1 Bft) S-SW 202 0 min 10,3 C 12,5 C 2,7 km/h (1 Bft)
29.09.2021 19:30 14,1 C 16,5 C 13,5 C 13,6 C 12,5 C 0,0 C 79 % 87 % 1016,8 hPa 0,0 l/m 2,7 km/h (1 Bft) SW 225 0 min 10,5 C 12,5 C 0,0 km/h (0 Bft)
29.09.2021 19:35 14,0 C 16,5 C 13,4 C 13,5 C 12,5 C 0,0 C 79 % 88 % 1017,2 hPa 0,0 l/m 2,3 km/h (1 Bft) S 180 0 min 10,4 C 12,5 C 2,6 km/h (1 Bft)
29.09.2021 19:40 13,9 C 16,5 C 13,5 C 13,5 C 12,6 C 0,0 C 79 % 88 % 1017,2 hPa 0,0 l/m 2,1 km/h (1 Bft) W-SW 247 0 min 10,3 C 12,6 C 1,8 km/h (1 Bft)
29.09.2021 19:45 13,9 C 16,5 C 13,4 C 13,5 C 12,7 C 0,0 C 80 % 88 % 1017,2 hPa 0,0 l/m 2,1 km/h (1 Bft) W-SW 247 0 min 10,5 C 12,7 C 2,3 km/h (1 Bft)
29.09.2021 19:50 13,9 C 16,5 C 13,4 C 13,5 C 12,8 C 0,0 C 80 % 88 % 1017,2 hPa 0,0 l/m 1,9 km/h (1 Bft) SW 225 0 min 10,5 C 12,8 C 2,9 km/h (1 Bft)
29.09.2021 19:55 13,9 C 16,5 C 13,4 C 13,6 C 12,9 C 0,0 C 80 % 89 % 1017,4 hPa 0,0 l/m 2,1 km/h (1 Bft) W-SW 247 0 min 10,5 C 12,9 C 1,9 km/h (1 Bft)
29.09.2021 20:00 13,9 C 16,4 C 13,4 C 13,6 C 13,1 C 0,0 C 80 % 88 % 1017,4 hPa 0,0 l/m 2,3 km/h (1 Bft) S 180 0 min 10,5 C 13,1 C 2,4 km/h (1 Bft)
29.09.2021 20:05 13,9 C 16,4 C 13,4 C 13,7 C 13,2 C 0,0 C 80 % 88 % 1017,4 hPa 0,0 l/m 1,8 km/h (1 Bft) W 270 0 min 10,5 C 13,2 C 2,6 km/h (1 Bft)
29.09.2021 20:10 13,9 C 16,4 C 13,4 C 13,7 C 13,2 C 0,0 C 80 % 88 % 1017,4 hPa 0,0 l/m 1,8 km/h (1 Bft) S-SW 202 0 min 10,5 C 13,2 C 2,4 km/h (1 Bft)
29.09.2021 20:15 13,8 C 16,4 C 13,3 C 13,6 C 13,3 C 0,0 C 81 % 89 % 1017,9 hPa 0,0 l/m 1,9 km/h (1 Bft) SW 225 0 min 10,6 C 13,3 C 1,9 km/h (1 Bft)
29.09.2021 20:20 13,9 C 16,4 C 13,3 C 13,7 C 13,3 C 0,0 C 81 % 89 % 1017,9 hPa 0,0 l/m 1,4 km/h (1 Bft) W-SW 247 0 min 10,7 C 13,3 C 0,0 km/h (0 Bft)
29.09.2021 20:25 13,8 C 16,4 C 13,3 C 13,6 C 13,3 C 0,0 C 81 % 89 % 1017,9 hPa 0,0 l/m 0,8 km/h (0 Bft) S 180 0 min 10,6 C 13,3 C 0,0 km/h (0 Bft)
29.09.2021 20:30 13,9 C 16,4 C 13,2 C 13,7 C 13,3 C 0,0 C 81 % 89 % 1017,9 hPa 0,0 l/m 0,8 km/h (0 Bft) SW 225 0 min 10,7 C 13,3 C 2,3 km/h (1 Bft)
29.09.2021 20:35 13,7 C 16,4 C 13,2 C 13,6 C 13,3 C 0,0 C 81 % 89 % 1017,9 hPa 0,0 l/m 1,1 km/h (1 Bft) SW 225 0 min 10,5 C 13,3 C 1,9 km/h (1 Bft)
29.09.2021 20:40 13,7 C 16,4 C 13,2 C 13,5 C 13,2 C 0,0 C 81 % 89 % 1017,9 hPa 0,0 l/m 1,1 km/h (1 Bft) S 180 0 min 10,5 C 13,2 C 0,0 km/h (0 Bft)
29.09.2021 20:45 13,6 C 16,4 C 13,1 C 13,5 C 13,2 C 0,0 C 81 % 89 % 1017,9 hPa 0,0 l/m 1,1 km/h (1 Bft) S-SO 157 0 min 10,4 C 13,2 C 3,2 km/h (1 Bft)
29.09.2021 20:50 13,7 C 16,4 C 13,1 C 13,5 C 13,2 C 0,0 C 81 % 89 % 1017,9 hPa 0,0 l/m 1,0 km/h (0 Bft) S 180 0 min 10,5 C 13,2 C 0,0 km/h (0 Bft)
29.09.2021 20:55 13,6 C 16,4 C 13,0 C 13,4 C 13,0 C 0,0 C 81 % 88 % 1018,5 hPa 0,0 l/m 1,1 km/h (1 Bft) N 360 0 min 10,4 C 13,0 C 0,0 km/h (0 Bft)
29.09.2021 21:00 13,5 C 16,4 C 13,0 C 13,3 C 12,9 C 0,0 C 80 % 88 % 1018,5 hPa 0,0 l/m 1,1 km/h (1 Bft) SW 225 0 min 10,1 C 12,9 C 0,0 km/h (0 Bft)
29.09.2021 21:05 13,4 C 16,4 C 12,9 C 13,2 C 12,7 C 0,0 C 80 % 88 % 1018,5 hPa 0,0 l/m 0,6 km/h (0 Bft) S-SW 202 0 min 10,0 C 12,7 C 3,1 km/h (1 Bft)
29.09.2021 21:10 13,4 C 16,3 C 12,8 C 13,2 C 12,7 C 0,0 C 80 % 88 % 1018,5 hPa 0,0 l/m 1,0 km/h (0 Bft) SW 225 0 min 10,0 C 12,7 C 2,3 km/h (1 Bft)
29.09.2021 21:15 13,3 C 16,3 C 12,8 C 13,1 C 12,7 C 0,0 C 80 % 88 % 1018,5 hPa 0,0 l/m 1,1 km/h (1 Bft) SW 225 0 min 9,9 C 12,7 C 0,0 km/h (0 Bft)
29.09.2021 21:20 13,3 C 16,3 C 12,8 C 13,1 C 12,7 C 0,0 C 80 % 88 % 1018,5 hPa 0,0 l/m 0,5 km/h (0 Bft) S-SW 202 0 min 9,9 C 12,7 C 0,0 km/h (0 Bft)
29.09.2021 21:25 13,3 C 16,4 C 12,7 C 13,1 C 12,6 C 0,0 C 80 % 88 % 1018,5 hPa 0,0 l/m 0,0 km/h (0 Bft) S 180 0 min 9,9 C 12,6 C 0,0 km/h (0 Bft)
29.09.2021 21:30 13,2 C 16,3 C 12,7 C 13,0 C 12,5 C 0,0 C 80 % 88 % 1018,5 hPa 0,0 l/m 0,2 km/h (0 Bft) W-SW 247 0 min 9,8 C 12,5 C 1,6 km/h (1 Bft)
29.09.2021 21:35 13,1 C 16,4 C 12,6 C 12,9 C 12,5 C 0,0 C 80 % 88 % 1018,8 hPa 0,0 l/m 0,5 km/h (0 Bft) SW 225 0 min 9,7 C 12,5 C 1,9 km/h (1 Bft)
29.09.2021 21:40 13,1 C 16,4 C 12,6 C 12,9 C 12,5 C 0,0 C 80 % 88 % 1018,8 hPa 0,0 l/m 0,5 km/h (0 Bft) SW 225 0 min 9,7 C 12,5 C 1,6 km/h (1 Bft)
29.09.2021 21:45 13,1 C 16,4 C 12,5 C 12,9 C 12,5 C 0,0 C 79 % 88 % 1018,8 hPa 0,0 l/m 0,2 km/h (0 Bft) S 180 0 min 9,5 C 12,5 C 0,0 km/h (0 Bft)
29.09.2021 21:50 13,0 C 16,4 C 12,5 C 12,8 C 12,4 C 0,0 C 80 % 88 % 1018,8 hPa 0,0 l/m 0,2 km/h (0 Bft) SW 225 0 min 9,6 C 12,4 C 1,9 km/h (1 Bft)
29.09.2021 21:55 12,9 C 16,4 C 12,5 C 12,7 C 12,4 C 0,0 C 79 % 88 % 1018,9 hPa 0,0 l/m 0,5 km/h (0 Bft) W-SW 247 0 min 9,3 C 12,4 C 2,6 km/h (1 Bft)
29.09.2021 22:00 12,9 C 16,4 C 12,4 C 12,7 C 12,4 C 0,0 C 79 % 88 % 1018,9 hPa 0,0 l/m 0,6 km/h (0 Bft) S-SO 157 0 min 9,3 C 12,4 C 0,0 km/h (0 Bft)
29.09.2021 22:05 12,8 C 16,4 C 12,4 C 12,7 C 12,4 C 0,0 C 78 % 87 % 1018,9 hPa 0,0 l/m 0,8 km/h (0 Bft) SW 225 0 min 9,1 C 12,4 C 2,4 km/h (1 Bft)
29.09.2021 22:10 12,9 C 16,3 C 12,3 C 12,7 C 12,4 C 0,0 C 78 % 87 % 1018,9 hPa 0,0 l/m 0,8 km/h (0 Bft) SW 225 0 min 9,2 C 12,4 C 2,3 km/h (1 Bft)
29.09.2021 22:15 12,8 C 16,3 C 12,3 C 12,6 C 12,2 C 0,0 C 77 % 86 % 1020,1 hPa 0,0 l/m 0,8 km/h (0 Bft) SW 225 0 min 8,9 C 12,2 C 0,0 km/h (0 Bft)
29.09.2021 22:20 12,7 C 16,3 C 12,2 C 12,5 C 12,1 C 0,0 C 77 % 86 % 1020,1 hPa 0,0 l/m 0,8 km/h (0 Bft) W-SW 247 0 min 8,8 C 12,1 C 3,2 km/h (1 Bft)
29.09.2021 22:25 12,7 C 16,3 C 12,1 C 12,4 C 11,9 C 0,0 C 77 % 86 % 1020,1 hPa 0,0 l/m 1,1 km/h (1 Bft) SW 225 0 min 8,8 C 11,9 C 2,4 km/h (1 Bft)
29.09.2021 22:30 12,7 C 16,3 C 12,0 C 12,4 C 11,8 C 0,0 C 77 % 86 % 1020,1 hPa 0,0 l/m 1,1 km/h (1 Bft) SW 225 0 min 8,8 C 11,8 C 1,6 km/h (1 Bft)
29.09.2021 22:35 12,5 C 16,3 C 11,9 C 12,2 C 11,6 C 0,0 C 76 % 84 % 1019,7 hPa 0,0 l/m 1,3 km/h (1 Bft) SW 225 0 min 8,4 C 11,6 C 2,9 km/h (1 Bft)
29.09.2021 22:40 12,4 C 16,2 C 11,8 C 12,1 C 11,4 C 0,0 C 75 % 84 % 1019,7 hPa 0,0 l/m 1,9 km/h (1 Bft) W-SW 247 0 min 8,1 C 11,4 C 2,6 km/h (1 Bft)
29.09.2021 22:45 12,3 C 16,2 C 11,6 C 11,9 C 11,2 C 0,0 C 75 % 84 % 1019,7 hPa 0,0 l/m 2,1 km/h (1 Bft) SW 225 0 min 8,0 C 11,2 C 1,9 km/h (1 Bft)
29.09.2021 22:50 12,2 C 16,2 C 11,5 C 11,8 C 11,1 C 0,0 C 74 % 84 % 1019,7 hPa 0,0 l/m 1,8 km/h (1 Bft) SW 225 0 min 7,7 C 11,1 C 0,0 km/h (0 Bft)
29.09.2021 22:55 12,0 C 16,2 C 11,4 C 11,6 C 10,8 C 0,0 C 74 % 84 % 1019,7 hPa 0,0 l/m 1,3 km/h (1 Bft) SW 225 0 min 7,5 C 10,8 C 2,4 km/h (1 Bft)
29.09.2021 23:00 11,9 C 16,2 C 11,3 C 11,5 C 10,7 C 0,0 C 74 % 83 % 1019,7 hPa 0,0 l/m 0,8 km/h (0 Bft) SW 225 0 min 7,4 C 10,7 C 1,6 km/h (1 Bft)
29.09.2021 23:05 11,9 C 16,2 C 11,1 C 11,4 C 10,5 C 0,0 C 74 % 83 % 1019,7 hPa 0,0 l/m 0,6 km/h (0 Bft) S-SW 202 0 min 7,4 C 10,5 C 0,0 km/h (0 Bft)
29.09.2021 23:10 11,6 C 16,1 C 11,0 C 11,2 C 10,4 C 0,0 C 74 % 83 % 1019,7 hPa 0,0 l/m 0,8 km/h (0 Bft) SW 225 0 min 7,1 C 10,4 C 4,2 km/h (1 Bft)
29.09.2021 23:15 11,5 C 16,1 C 10,9 C 11,1 C 10,2 C 0,0 C 74 % 83 % 1019,9 hPa 0,0 l/m 1,0 km/h (0 Bft) S 180 0 min 7,0 C 10,2 C 0,0 km/h (0 Bft)
29.09.2021 23:20 11,5 C 16,1 C 10,8 C 11,0 C 10,1 C 0,0 C 74 % 83 % 1019,9 hPa 0,0 l/m 0,8 km/h (0 Bft) SW 225 0 min 7,0 C 10,1 C 2,1 km/h (1 Bft)
29.09.2021 23:25 11,2 C 16,1 C 10,7 C 10,8 C 10,0 C 0,0 C 74 % 84 % 1019,9 hPa 0,0 l/m 0,5 km/h (0 Bft) W-SW 247 0 min 6,7 C 10,0 C 1,8 km/h (1 Bft)
29.09.2021 23:30 11,2 C 16,1 C 10,7 C 10,8 C 9,9 C 0,0 C 75 % 84 % 1019,9 hPa 0,0 l/m 1,0 km/h (0 Bft) W-SW 247 0 min 6,9 C 9,9 C 2,3 km/h (1 Bft)
29.09.2021 23:35 11,1 C 16,1 C 10,6 C 10,7 C 9,8 C 0,0 C 75 % 84 % 1020,3 hPa 0,0 l/m 1,0 km/h (0 Bft) SW 225 0 min 6,8 C 9,8 C 1,9 km/h (1 Bft)
29.09.2021 23:40 11,0 C 16,1 C 10,5 C 10,6 C 9,7 C 0,0 C 75 % 84 % 1020,3 hPa 0,0 l/m 0,8 km/h (0 Bft) S 180 0 min 6,7 C 9,7 C 2,3 km/h (1 Bft)
29.09.2021 23:45 10,8 C 16,0 C 10,3 C 10,4 C 9,5 C 0,0 C 75 % 84 % 1020,3 hPa 0,0 l/m 0,3 km/h (0 Bft) SW 225 0 min 6,5 C 9,5 C 0,0 km/h (0 Bft)
29.09.2021 23:50 10,7 C 16,0 C 10,3 C 10,3 C 9,4 C 0,0 C 76 % 84 % 1020,3 hPa 0,0 l/m 0,2 km/h (0 Bft) O 90 0 min 6,6 C 9,4 C 0,0 km/h (0 Bft)
29.09.2021 23:55 10,7 C 16,0 C 10,2 C 10,2 C 9,2 C 0,0 C 76 % 85 % 1020,6 hPa 0,0 l/m 0,2 km/h (0 Bft) S-SO 157 0 min 6,6 C 9,2 C 0,0 km/h (0 Bft)
_ Min-Zeit 00:45 23:45 00:35 00:35 23:55 00:00 16:26 17:35 13:55 - 00:00 - - - 23:45 23:55 00:00
Minimum _ 9,2 C 16,0 C 10,1 C 9,5 C 9,2 C 0,0 C 65 % 81 % 1014,2 hPa - 0,0 km/h (0 Bft) - - - 6,5 C 9,2 C 0,0 km/h (0 Bft)
_ Max-Zeit 16:41 00:00 16:11 15:45 15:45 13:55 12:10 00:00 23:55 08:55 19:05 - - 16:11 14:10 15:45 14:15
Maximum _ 18,3 C 17,5 C 17,9 C 24,4 C 24,4 C 8,1 C 89 % 95 % 1020,6 hPa 2,1 l/m 6,1 km/h
SW (2 Bft)
- - 6 min 14,5 C 24,4 C 15,3 km/h
SO (3 Bft)
Durchschnitt _ 13,0 C 17,0 C 13,4 C 14,6 C 14,4 C 1,6 C 82 % 91 % 1016,3 hPa #5,5 l/m 0,9 km/h (0 Bft) SW - #3:41 h 9,9 C 14,4 C 1,4 km/h (1 Bft)
2021 www.wetterstation-wechselburg.de